Time;durP1;ratioP1;P1;durP2;ratioP2;P2;SDS_P1;SDS_P2;PMS_P1;PMS_P2;Temp;Humidity;BMP_temperature;BMP_pressure;BME280_temperature;BME280_humidity;BME280_pressure;Samples;Min_cycle;Max_cycle;Signal;HPM_P1;HPM_P2
2021/08/13 00:00:26;;;;;;;20.55;12.02;;;19.30;81.10;;;;;;5137491;27;20098;-38
2021/08/13 00:02:52;;;;;;;14.85;11.35;;;19.30;80.50;;;;;;5137013;27;20027;-41
2021/08/13 00:05:17;;;;;;;19.80;11.20;;;19.20;81.00;;;;;;5137079;27;20114;-37
2021/08/13 00:07:43;;;;;;;14.02;10.68;;;19.10;81.40;;;;;;5137345;27;20527;-37
2021/08/13 00:10:09;;;;;;;14.80;10.70;;;19.10;81.70;;;;;;5137109;27;20163;-37
2021/08/13 00:12:35;;;;;;;13.35;9.88;;;19.00;82.00;;;;;;5136566;27;20031;-38
2021/08/13 00:15:01;;;;;;;16.55;9.70;;;18.90;82.60;;;;;;5137822;27;20102;-37
2021/08/13 00:17:27;;;;;;;16.88;10.18;;;18.80;83.30;;;;;;5136748;27;20243;-37
2021/08/13 00:19:54;;;;;;;16.02;12.02;;;18.70;83.70;;;;;;5136512;27;20063;-38
2021/08/13 00:22:20;;;;;;;16.95;11.70;;;18.70;83.90;;;;;;5136798;27;20019;-37
2021/08/13 00:24:46;;;;;;;17.77;11.50;;;18.70;84.10;;;;;;5136578;27;20390;-37
2021/08/13 00:27:12;;;;;;;16.02;10.60;;;18.60;84.10;;;;;;5135976;27;20019;-37
2021/08/13 00:29:37;;;;;;;17.38;11.85;;;18.70;84.20;;;;;;5136567;27;20037;-36
2021/08/13 00:32:03;;;;;;;15.43;11.60;;;18.60;84.20;;;;;;5136802;27;20054;-37
2021/08/13 00:34:29;;;;;;;16.33;10.43;;;18.50;84.30;;;;;;5136591;27;20057;-38
2021/08/13 00:36:54;;;;;;;14.13;10.13;;;18.50;84.30;;;;;;5137078;27;20019;-38
2021/08/13 00:39:20;;;;;;;15.20;9.80;;;18.50;84.40;;;;;;5136742;27;20027;-36
2021/08/13 00:41:46;;;;;;;19.85;11.32;;;18.50;84.30;;;;;;5136631;27;20019;-37
2021/08/13 00:44:11;;;;;;;15.50;11.68;;;18.40;84.30;;;;;;5136836;27;20024;-36
2021/08/13 00:46:37;;;;;;;21.55;12.18;;;18.40;84.40;;;;;;5136360;27;20019;-36
2021/08/13 00:49:03;;;;;;;16.58;11.55;;;18.40;84.30;;;;;;5136349;27;20119;-37
2021/08/13 00:51:29;;;;;;;13.73;10.52;;;18.40;84.50;;;;;;5136700;27;20034;-36
2021/08/13 00:53:55;;;;;;;18.30;12.05;;;18.40;84.30;;;;;;5136264;27;20504;-37
2021/08/13 00:56:21;;;;;;;16.85;11.25;;;18.50;84.10;;;;;;5136447;27;20102;-38
2021/08/13 00:58:48;;;;;;;15.85;9.90;;;18.50;84.00;;;;;;5136818;27;20403;-38
2021/08/13 01:01:13;;;;;;;14.73;10.32;;;18.50;83.90;;;;;;5136329;27;20024;-38
2021/08/13 01:03:40;;;;;;;10.93;9.38;;;18.50;84.00;;;;;;5136110;27;20023;-37
2021/08/13 01:06:12;;;;;;;14.70;10.80;;;18.40;83.90;;;;;;5135889;27;20031;-37
2021/08/13 01:08:39;;;;;;;16.98;10.65;;;18.40;83.90;;;;;;5135884;27;20439;-37
2021/08/13 01:11:17;;;;;;;15.63;10.50;;;18.50;83.70;;;;;;5135514;27;20125;-38
2021/08/13 01:14:01;;;;;;;14.95;10.68;;;18.50;83.60;;;;;;5117305;27;20114;-38
2021/08/13 01:16:29;;;;;;;17.63;10.65;;;18.50;83.60;;;;;;5136059;27;20015;-37
2021/08/13 01:19:04;;;;;;;15.82;10.68;;;18.50;83.50;;;;;;5135387;27;20053;-37
2021/08/13 01:21:37;;;;;;;16.50;9.68;;;18.40;83.60;;;;;;5135256;27;20470;-37
2021/08/13 01:24:10;;;;;;;16.33;11.13;;;18.40;83.50;;;;;;5135426;27;20054;-37
2021/08/13 01:26:44;;;;;;;15.93;10.57;;;18.40;83.50;;;;;;5134995;27;20099;-37
2021/08/13 01:29:28;;;;;;;17.17;11.65;;;18.40;83.40;;;;;;5135297;27;20493;-39
2021/08/13 01:32:07;;;;;;;13.13;9.63;;;18.50;83.80;;;;;;5135007;27;20027;-37
2021/08/13 01:34:33;;;;;;;15.82;11.05;;;18.30;84.40;;;;;;5135082;27;20135;-38
2021/08/13 01:37:00;;;;;;;16.63;10.90;;;18.40;84.60;;;;;;5135021;27;20019;-37
2021/08/13 01:39:30;;;;;;;21.25;11.48;;;18.40;84.50;;;;;;5134020;27;20034;-38
2021/08/13 01:41:57;;;;;;;18.27;11.45;;;18.40;83.60;;;;;;5135213;27;20034;-37
2021/08/13 01:44:25;;;;;;;16.92;12.52;;;18.40;83.10;;;;;;5135728;27;20027;-38
2021/08/13 01:46:54;;;;;;;15.70;11.10;;;18.50;82.90;;;;;;5135058;27;20023;-38
2021/08/13 01:49:19;;;;;;;24.90;11.85;;;18.50;83.00;;;;;;5116499;27;20027;-38
2021/08/13 01:51:47;;;;;;;18.35;11.27;;;18.50;82.70;;;;;;5135013;27;20042;-37
2021/08/13 01:54:13;;;;;;;16.60;11.85;;;18.40;82.70;;;;;;5134892;27;20441;-38
2021/08/13 01:56:40;;;;;;;18.00;11.13;;;18.40;82.50;;;;;;5135203;27;20076;-37
2021/08/13 01:59:06;;;;;;;18.55;11.30;;;18.50;82.70;;;;;;5134905;27;20054;-38
2021/08/13 02:01:33;;;;;;;16.50;10.45;;;18.40;83.50;;;;;;5135046;27;20019;-37
2021/08/13 02:04:00;;;;;;;16.90;10.35;;;18.30;84.10;;;;;;5134972;27;20088;-37
2021/08/13 02:06:30;;;;;;;18.00;10.93;;;18.20;84.70;;;;;;5134635;27;20019;-37
2021/08/13 02:08:57;;;;;;;18.55;10.68;;;18.20;84.90;;;;;;5134873;27;20079;-38
2021/08/13 02:11:24;;;;;;;20.67;12.60;;;18.20;84.70;;;;;;5134798;27;20106;-38
2021/08/13 02:13:50;;;;;;;18.20;10.25;;;18.30;84.40;;;;;;5134497;27;20027;-38
2021/08/13 02:16:21;;;;;;;13.48;10.77;;;18.30;84.40;;;;;;5134752;27;20419;-37
2021/08/13 02:18:55;;;;;;;14.27;9.50;;;18.20;84.90;;;;;;5134331;27;20015;-39
2021/08/13 02:21:22;;;;;;;16.08;10.85;;;18.10;85.00;;;;;;5134413;27;20019;-38
2021/08/13 02:23:48;;;;;;;21.33;11.27;;;18.10;85.00;;;;;;5115903;27;20023;-37
2021/08/13 02:26:13;;;;;;;16.45;11.68;;;18.10;84.90;;;;;;5134818;27;20029;-38
2021/08/13 02:28:39;;;;;;;14.73;10.55;;;18.10;85.00;;;;;;5134370;27;20192;-38
2021/08/13 02:31:05;;;;;;;16.42;11.25;;;18.10;85.00;;;;;;5134109;27;20031;-38
2021/08/13 02:33:30;;;;;;;19.83;11.38;;;18.10;85.00;;;;;;5134495;27;20023;-38
2021/08/13 02:36:07;;;;;;;14.98;10.15;;;18.10;84.80;;;;;;5134539;27;20027;-37
2021/08/13 02:38:45;;;;;;;21.33;10.75;;;18.20;84.70;;;;;;5115792;27;20068;-38
2021/08/13 02:41:11;;;;;;;16.25;9.98;;;18.20;84.90;;;;;;5134044;27;20028;-37
2021/08/13 02:43:47;;;;;;;14.07;9.85;;;18.20;84.80;;;;;;5115526;27;20106;-37
2021/08/13 02:46:15;;;;;;;14.65;9.50;;;18.20;84.60;;;;;;5134569;27;20106;-37
2021/08/13 02:48:42;;;;;;;17.35;10.95;;;18.20;84.80;;;;;;5133945;27;20026;-37
2021/08/13 02:51:14;;;;;;;18.77;10.98;;;18.10;84.80;;;;;;5134424;27;20545;-36
2021/08/13 02:53:43;;;;;;;16.83;9.80;;;18.10;84.90;;;;;;5133517;27;20054;-37
2021/08/13 02:56:15;;;;;;;14.98;10.55;;;18.10;84.70;;;;;;5133993;28;20023;-37
2021/08/13 02:58:44;;;;;;;15.93;10.32;;;18.00;85.00;;;;;;5133881;28;20019;-37
2021/08/13 03:01:14;;;;;;;13.93;10.15;;;17.80;85.60;;;;;;5134134;28;20030;-37
2021/08/13 03:03:41;;;;;;;19.67;11.98;;;17.80;86.00;;;;;;5133459;28;20121;-37
2021/08/13 03:06:10;;;;;;;20.83;10.90;;;17.70;86.20;;;;;;5133401;28;20023;-37
2021/08/13 03:08:36;;;;;;;15.63;11.65;;;17.80;86.30;;;;;;5134078;28;20102;-36
2021/08/13 03:11:04;;;;;;;15.90;10.93;;;17.80;86.00;;;;;;5133832;28;20107;-37
2021/08/13 03:13:31;;;;;;;16.33;10.70;;;17.70;86.50;;;;;;5133723;28;20023;-36
2021/08/13 03:15:58;;;;;;;13.98;10.73;;;17.70;86.60;;;;;;5134090;28;20069;-37
2021/08/13 03:18:25;;;;;;;14.65;11.43;;;17.60;86.60;;;;;;5133706;28;20016;-36
2021/08/13 03:20:51;;;;;;;17.45;11.55;;;17.60;86.70;;;;;;5133784;28;20057;-37
2021/08/13 03:23:17;;;;;;;19.08;11.82;;;17.70;86.70;;;;;;5134036;28;20031;-37
2021/08/13 03:25:44;;;;;;;14.38;10.23;;;17.70;86.40;;;;;;5134017;28;20050;-40
2021/08/13 03:28:11;;;;;;;15.48;10.95;;;17.60;86.50;;;;;;5115037;28;20022;-36
2021/08/13 03:30:44;;;;;;;15.30;10.20;;;17.60;86.50;;;;;;5133543;28;20027;-37
2021/08/13 03:33:11;;;;;;;17.48;10.52;;;17.80;86.00;;;;;;5133511;28;20018;-36
2021/08/13 03:35:38;;;;;;;18.60;12.23;;;17.70;85.70;;;;;;5133539;28;20051;-37
2021/08/13 03:38:05;;;;;;;14.77;10.52;;;17.70;85.70;;;;;;5134090;28;20043;-37
2021/08/13 03:40:30;;;;;;;19.00;11.00;;;17.80;85.40;;;;;;5133713;28;20106;-37
2021/08/13 03:42:56;;;;;;;17.45;10.63;;;17.80;85.40;;;;;;5133573;28;20115;-36
2021/08/13 03:45:22;;;;;;;17.77;10.82;;;17.70;85.60;;;;;;5133347;28;20046;-37
2021/08/13 03:47:47;;;;;;;18.42;11.15;;;17.60;86.00;;;;;;5133620;28;20019;-37
2021/08/13 03:50:13;;;;;;;14.20;10.68;;;17.60;86.20;;;;;;5133338;28;20023;-39
2021/08/13 03:52:39;;;;;;;19.63;11.75;;;17.50;86.60;;;;;;5133176;28;20034;-37
2021/08/13 03:55:05;;;;;;;19.83;12.50;;;17.50;86.50;;;;;;5133252;28;20027;-37
2021/08/13 03:57:31;;;;;;;14.23;10.85;;;17.50;86.40;;;;;;5133081;28;20498;-37
2021/08/13 03:59:57;;;;;;;18.70;11.30;;;17.50;86.20;;;;;;5133088;27;20023;-36
2021/08/13 04:02:22;;;;;;;18.25;12.00;;;17.50;86.20;;;;;;5135934;27;20110;-37
2021/08/13 04:04:48;;;;;;;14.68;10.27;;;17.50;86.20;;;;;;5136746;27;20023;-37
2021/08/13 04:07:14;;;;;;;18.60;11.05;;;17.40;86.40;;;;;;5136686;27;20026;-37
2021/08/13 04:09:39;;;;;;;17.30;11.02;;;17.30;86.60;;;;;;5136594;27;20379;-37
2021/08/13 04:12:05;;;;;;;17.48;12.55;;;17.30;86.90;;;;;;5136665;27;20114;-37
2021/08/13 04:14:31;;;;;;;19.45;11.38;;;17.30;86.80;;;;;;5136681;27;20031;-37
2021/08/13 04:16:57;;;;;;;20.48;11.38;;;17.30;86.80;;;;;;5117793;27;20019;-37
2021/08/13 04:19:23;;;;;;;17.40;11.52;;;17.30;86.80;;;;;;5136486;27;20015;-37
2021/08/13 04:21:49;;;;;;;18.23;12.20;;;17.40;86.70;;;;;;5136996;27;20396;-37
2021/08/13 04:24:14;;;;;;;16.40;11.15;;;17.40;86.50;;;;;;5136564;27;20027;-37
2021/08/13 04:26:40;;;;;;;16.75;11.77;;;17.50;86.30;;;;;;5136623;27;20056;-37
2021/08/13 04:29:05;;;;;;;15.88;10.95;;;17.50;86.20;;;;;;5136501;27;20039;-37
2021/08/13 04:31:31;;;;;;;23.40;12.73;;;17.40;86.20;;;;;;5136475;27;20042;-36
2021/08/13 04:33:57;;;;;;;18.92;13.77;;;17.40;86.30;;;;;;5136308;27;20424;-37
2021/08/13 04:36:22;;;;;;;18.85;11.93;;;17.40;86.40;;;;;;5136360;27;20019;-38
2021/08/13 04:38:48;;;;;;;18.08;12.25;;;17.40;86.40;;;;;;5136505;27;20054;-37
2021/08/13 04:41:14;;;;;;;16.60;12.15;;;17.40;86.60;;;;;;5136501;27;20024;-37
2021/08/13 04:43:39;;;;;;;20.95;13.15;;;17.40;86.50;;;;;;5136396;27;20373;-36
2021/08/13 04:46:05;;;;;;;19.00;13.05;;;17.40;86.50;;;;;;5136090;27;20077;-37
2021/08/13 04:48:30;;;;;;;16.67;11.93;;;17.40;86.60;;;;;;5136366;27;20019;-37
2021/08/13 04:50:56;;;;;;;23.23;12.55;;;17.50;86.50;;;;;;5117395;27;20031;-37
2021/08/13 04:53:22;;;;;;;19.45;12.30;;;17.50;86.30;;;;;;5135734;27;20050;-37
2021/08/13 04:55:47;;;;;;;22.77;15.05;;;17.60;86.10;;;;;;5135852;27;20071;-37
2021/08/13 04:58:13;;;;;;;18.05;12.43;;;17.70;86.00;;;;;;5135508;27;20019;-37
2021/08/13 05:00:39;;;;;;;18.67;13.25;;;17.70;85.70;;;;;;5135883;27;20094;-37
2021/08/13 05:03:06;;;;;;;19.90;12.32;;;17.70;85.70;;;;;;5136030;27;20189;-37
2021/08/13 05:05:32;;;;;;;17.95;13.20;;;17.80;85.00;;;;;;5136006;27;20033;-37
2021/08/13 05:07:57;;;;;;;20.90;13.32;;;17.80;84.90;;;;;;5117740;27;20122;-37
2021/08/13 05:10:23;;;;;;;18.50;12.18;;;17.80;84.70;;;;;;5136041;27;20494;-37
2021/08/13 05:12:50;;;;;;;18.30;13.00;;;17.80;84.80;;;;;;5135640;27;20046;-37
2021/08/13 05:15:16;;;;;;;18.38;11.82;;;17.80;84.70;;;;;;5135273;27;20463;-37
2021/08/13 05:17:42;;;;;;;21.92;12.93;;;17.80;85.10;;;;;;5135673;27;20023;-37
2021/08/13 05:20:09;;;;;;;17.80;12.25;;;17.90;85.10;;;;;;5135251;27;20466;-37
2021/08/13 05:22:36;;;;;;;22.05;13.35;;;18.00;84.90;;;;;;5135038;27;20142;-37
2021/08/13 05:25:09;;;;;;;23.33;15.07;;;18.00;84.70;;;;;;5135399;27;20469;-47
2021/08/13 05:27:36;;;;;;;18.08;13.13;;;18.10;84.40;;;;;;5135359;27;20482;-48
2021/08/13 05:30:03;;;;;;;18.42;13.32;;;18.30;83.60;;;;;;5135136;27;20106;-46
2021/08/13 05:32:29;;;;;;;19.52;12.77;;;18.30;83.50;;;;;;5135182;27;20031;-47
2021/08/13 05:34:55;;;;;;;22.48;12.93;;;18.40;83.30;;;;;;5134998;27;20480;-50
2021/08/13 05:37:21;;;;;;;20.15;14.98;;;18.50;82.70;;;;;;5134778;27;20378;-46
2021/08/13 05:39:46;;;;;;;19.02;13.18;;;18.60;82.40;;;;;;5116255;27;20023;-47
2021/08/13 05:42:12;;;;;;;22.83;11.98;;;18.80;81.90;;;;;;5134935;27;20023;-46
2021/08/13 05:44:39;;;;;;;19.75;13.13;;;18.90;81.70;;;;;;5135076;27;20032;-47
2021/08/13 05:47:05;;;;;;;21.27;13.25;;;19.00;81.60;;;;;;5134864;27;20132;-50
2021/08/13 05:49:31;;;;;;;23.55;13.32;;;19.10;80.90;;;;;;5135049;27;20029;-47
2021/08/13 05:51:57;;;;;;;24.40;13.95;;;19.20;81.30;;;;;;5134521;27;20024;-46
2021/08/13 05:54:23;;;;;;;19.67;12.85;;;19.10;81.60;;;;;;5134264;27;20043;-45
2021/08/13 05:56:49;;;;;;;19.50;13.27;;;19.00;82.00;;;;;;5134071;27;20019;-49
2021/08/13 05:59:15;;;;;;;18.33;13.20;;;19.10;81.60;;;;;;5134706;27;20015;-46
2021/08/13 06:01:41;;;;;;;19.17;13.75;;;19.10;81.20;;;;;;5134341;27;20027;-50
2021/08/13 06:04:06;;;;;;;20.88;13.93;;;19.20;80.90;;;;;;5134464;27;20035;-47
2021/08/13 06:06:32;;;;;;;19.85;14.52;;;19.20;80.90;;;;;;5134199;27;20023;-47
2021/08/13 06:08:58;;;;;;;19.58;12.82;;;19.30;79.00;;;;;;5115856;27;20031;-46
2021/08/13 06:11:23;;;;;;;19.17;14.02;;;19.50;78.70;;;;;;5134473;27;20079;-47
2021/08/13 06:13:49;;;;;;;23.05;13.70;;;19.40;79.20;;;;;;5134186;27;20045;-48
2021/08/13 06:16:19;;;;;;;20.55;12.85;;;19.70;78.70;;;;;;5134153;27;20042;-49
2021/08/13 06:18:45;;;;;;;20.63;12.98;;;19.90;78.90;;;;;;5134381;27;20020;-49
2021/08/13 06:21:10;;;;;;;31.85;16.75;;;19.90;79.30;;;;;;5134269;27;20047;-48
2021/08/13 06:23:36;;;;;;;23.80;14.80;;;20.20;78.30;;;;;;5133901;27;20126;-49
2021/08/13 06:26:02;;;;;;;23.23;13.32;;;20.20;77.70;;;;;;5133547;27;20026;-48
2021/08/13 06:28:27;;;;;;;19.80;12.98;;;20.20;77.40;;;;;;5133998;27;20037;-49
2021/08/13 06:30:53;;;;;;;18.95;13.63;;;20.30;76.20;;;;;;5134018;27;20027;-46
2021/08/13 06:33:19;;;;;;;23.20;12.82;;;20.30;77.10;;;;;;5134602;27;20023;-48
2021/08/13 06:35:45;;;;;;;17.75;12.95;;;20.60;75.20;;;;;;5134494;27;20027;-47
2021/08/13 06:38:10;;;;;;;28.58;13.85;;;20.30;76.20;;;;;;5134171;27;20461;-47
2021/08/13 06:40:36;;;;;;;19.77;12.23;;;20.40;76.70;;;;;;5133878;27;20030;-47
2021/08/13 06:43:01;;;;;;;19.67;12.68;;;20.90;74.90;;;;;;5133967;27;20076;-47
2021/08/13 06:45:28;;;;;;;21.95;12.75;;;21.20;73.90;;;;;;5133803;27;20027;-50
2021/08/13 06:47:54;;;;;;;16.83;11.18;;;21.30;73.30;;;;;;5133252;27;20031;-48
2021/08/13 06:50:19;;;;;;;131.80;77.20;;;21.50;72.70;;;;;;5134701;27;20019;-50
2021/08/13 06:52:45;;;;;;;25.55;13.70;;;21.90;70.80;;;;;;5134086;27;20023;-51
2021/08/13 06:55:12;;;;;;;22.75;12.85;;;21.90;71.30;;;;;;5133631;27;20023;-48
2021/08/13 06:57:39;;;;;;;20.95;11.90;;;22.10;70.50;;;;;;5133542;28;20566;-48
2021/08/13 07:00:07;;;;;;;23.13;12.30;;;22.00;70.80;;;;;;5115521;28;20371;-48
2021/08/13 07:02:33;;;;;;;17.15;11.45;;;22.20;70.10;;;;;;5115011;28;20355;-48
2021/08/13 07:04:58;;;;;;;17.83;12.68;;;22.30;70.00;;;;;;5134074;28;20031;-46
2021/08/13 07:07:24;;;;;;;19.15;13.02;;;22.30;69.70;;;;;;5114549;28;20024;-48
2021/08/13 07:09:50;;;;;;;18.73;12.75;;;22.30;70.20;;;;;;5115039;28;20038;-47
2021/08/13 07:12:16;;;;;;;20.08;11.45;;;22.20;70.40;;;;;;5133151;28;20110;-47
2021/08/13 07:14:42;;;;;;;19.02;13.70;;;22.10;71.10;;;;;;5132856;28;20083;-46
2021/08/13 07:17:08;;;;;;;21.75;13.10;;;22.10;70.90;;;;;;5133164;28;20023;-46
2021/08/13 07:19:35;;;;;;;16.60;11.68;;;22.20;70.90;;;;;;5132654;28;20535;-46
2021/08/13 07:22:02;;;;;;;22.88;13.77;;;22.30;70.90;;;;;;5132993;28;20018;-47
2021/08/13 07:24:27;;;;;;;24.55;14.27;;;22.30;71.20;;;;;;5114631;28;20067;-47
2021/08/13 07:26:53;;;;;;;20.00;13.60;;;22.30;71.40;;;;;;5133008;28;20019;-46
2021/08/13 07:29:21;;;;;;;22.92;14.65;;;22.40;71.40;;;;;;5133014;28;20020;-46
2021/08/13 07:31:47;;;;;;;22.30;13.02;;;22.50;71.60;;;;;;5132659;28;20034;-47
2021/08/13 07:34:12;;;;;;;28.08;13.07;;;22.60;71.50;;;;;;5133019;28;20024;-47
2021/08/13 07:36:38;;;;;;;19.10;12.18;;;22.80;70.90;;;;;;5136145;27;20030;-48
2021/08/13 07:39:04;;;;;;;19.45;12.38;;;22.80;70.50;;;;;;5138435;27;20026;-42
2021/08/13 07:41:29;;;;;;;19.60;12.70;;;23.00;69.80;;;;;;5137546;27;20035;-38
2021/08/13 07:43:55;;;;;;;23.33;12.07;;;23.00;69.90;;;;;;5138549;27;20038;-36
2021/08/13 07:46:21;;;;;;;18.27;12.00;;;22.90;70.00;;;;;;5137273;27;20046;-48
2021/08/13 07:48:47;;;;;;;19.30;11.35;;;22.80;69.80;;;;;;5118226;27;20478;-46
2021/08/13 07:51:12;;;;;;;18.80;12.85;;;22.80;70.50;;;;;;5136923;27;20026;-47
2021/08/13 07:53:38;;;;;;;18.98;12.98;;;22.90;70.00;;;;;;5136252;27;20374;-49
2021/08/13 07:56:05;;;;;;;19.80;11.18;;;23.10;69.60;;;;;;5136541;27;20101;-48
2021/08/13 07:58:31;;;;;;;19.58;11.15;;;23.20;69.20;;;;;;5136626;27;20019;-46
2021/08/13 08:00:56;;;;;;;18.63;12.45;;;23.20;69.30;;;;;;5136358;27;20019;-46
2021/08/13 08:03:22;;;;;;;17.75;10.93;;;23.30;68.50;;;;;;5118340;27;20019;-46
2021/08/13 08:05:48;;;;;;;22.20;12.48;;;23.70;67.20;;;;;;5136967;27;20118;-51
2021/08/13 08:08:13;;;;;;;20.23;11.43;;;23.80;66.40;;;;;;5136616;27;20020;-47
2021/08/13 08:10:45;;;;;;;22.58;12.10;;;23.80;66.20;;;;;;5136229;27;20023;-47
2021/08/13 08:13:11;;;;;;;16.50;11.60;;;23.50;67.30;;;;;;5135758;27;20027;-46
2021/08/13 08:15:37;;;;;;;18.30;11.93;;;23.50;67.40;;;;;;5136329;27;20027;-49
2021/08/13 08:18:03;;;;;;;17.63;12.43;;;23.30;68.00;;;;;;5136516;27;20459;-47
2021/08/13 08:20:28;;;;;;;21.80;13.90;;;23.60;67.50;;;;;;5136678;27;20479;-48
2021/08/13 08:22:54;;;;;;;23.90;14.80;;;23.80;66.70;;;;;;5136686;27;20483;-49
2021/08/13 08:25:20;;;;;;;25.27;16.27;;;24.00;66.10;;;;;;5135329;27;20019;-52
2021/08/13 08:27:45;;;;;;;22.73;14.98;;;23.70;66.40;;;;;;5136448;27;20038;-47
2021/08/13 08:30:12;;;;;;;25.67;14.82;;;24.10;65.30;;;;;;5135426;27;20027;-48
2021/08/13 08:32:37;;;;;;;24.00;15.27;;;24.40;64.30;;;;;;5136081;27;20061;-48
2021/08/13 08:35:03;;;;;;;30.90;17.52;;;24.40;64.30;;;;;;5135495;27;20059;-47
2021/08/13 08:37:29;;;;;;;25.00;16.75;;;24.10;65.10;;;;;;5117440;27;20023;-51
2021/08/13 08:39:55;;;;;;;25.67;16.60;;;24.70;63.60;;;;;;5135423;27;20026;-50
2021/08/13 08:42:21;;;;;;;27.55;17.92;;;25.10;61.90;;;;;;5135609;27;20475;-48
2021/08/13 08:44:47;;;;;;;31.33;18.83;;;25.60;60.10;;;;;;5135606;27;20099;-48
2021/08/13 08:47:16;;;;;;;30.52;18.17;;;25.40;59.70;;;;;;5135152;27;20034;-50
2021/08/13 08:49:43;;;;;;;23.17;16.77;;;25.40;60.10;;;;;;5135703;27;20102;-48
2021/08/13 08:52:11;;;;;;;22.33;16.58;;;25.70;58.90;;;;;;5135670;27;20030;-47
2021/08/13 08:54:40;;;;;;;21.25;16.40;;;25.20;59.40;;;;;;5116872;27;20040;-52
2021/08/13 08:57:06;;;;;;;23.23;18.10;;;24.70;61.50;;;;;;5117291;27;20057;-51
2021/08/13 08:59:32;;;;;;;23.70;16.58;;;24.30;62.80;;;;;;5135699;27;20752;-48
2021/08/13 09:01:58;;;;;;;21.30;16.20;;;24.80;61.50;;;;;;5135273;27;20043;-47
2021/08/13 09:04:24;;;;;;;26.17;16.70;;;25.20;60.50;;;;;;5135862;27;20027;-48
2021/08/13 09:06:52;;;;;;;23.67;16.17;;;24.70;62.20;;;;;;5116310;27;20024;-49
2021/08/13 09:09:20;;;;;;;30.70;18.60;;;25.30;60.00;;;;;;5116262;27;20106;-48
2021/08/13 09:11:46;;;;;;;30.52;22.73;;;25.00;61.80;;;;;;5135167;27;20027;-49
2021/08/13 09:14:13;;;;;;;33.03;20.85;;;24.40;63.50;;;;;;5134762;27;20023;-48
2021/08/13 09:16:58;;;;;;;30.13;22.00;;;24.00;64.90;;;;;;5134631;27;20467;-47
2021/08/13 09:19:46;;;;;;;28.75;20.08;;;23.80;65.70;;;;;;5134804;27;20026;-50
2021/08/13 09:22:17;;;;;;;27.50;20.45;;;24.30;64.20;;;;;;5116762;27;20023;-49
2021/08/13 09:24:45;;;;;;;28.48;20.13;;;24.50;63.40;;;;;;5134857;27;20076;-49
2021/08/13 09:27:25;;;;;;;35.35;20.85;;;25.00;62.30;;;;;;5134903;27;20024;-47
2021/08/13 09:30:17;;;;;;;23.30;18.90;;;24.90;62.40;;;;;;5116720;27;20027;-47
2021/08/13 09:33:05;;;;;;;29.08;20.05;;;24.60;61.70;;;;;;5134719;27;20027;-47
2021/08/13 09:35:37;;;;;;;27.55;20.85;;;25.00;60.80;;;;;;5134346;27;20026;-49
2021/08/13 09:38:10;;;;;;;29.92;20.23;;;24.60;62.30;;;;;;5134016;27;20110;-50
2021/08/13 09:40:38;;;;;;;27.13;20.85;;;24.70;62.70;;;;;;5134138;27;20098;-52
2021/08/13 09:43:04;;;;;;;28.73;20.13;;;25.20;60.50;;;;;;5134377;27;20071;-47
2021/08/13 09:45:30;;;;;;;31.45;20.60;;;25.30;60.20;;;;;;5134850;27;20027;-49
2021/08/13 09:47:56;;;;;;;30.40;17.83;;;25.90;57.80;;;;;;5134170;27;20023;-51
2021/08/13 09:50:40;;;;;;;22.85;17.05;;;26.00;56.70;;;;;;5134151;27;20024;-49
2021/08/13 09:53:15;;;;;;;27.08;18.27;;;25.80;56.40;;;;;;5133685;27;20389;-48
2021/08/13 09:55:42;;;;;;;26.02;19.23;;;26.00;56.10;;;;;;5115818;27;20030;-51
2021/08/13 09:58:09;;;;;;;24.88;17.42;;;25.90;57.00;;;;;;5133826;27;20102;-49
2021/08/13 10:00:46;;;;;;;30.10;17.33;;;25.80;57.40;;;;;;5133081;27;20025;-52
2021/08/13 10:03:12;;;;;;;27.23;17.75;;;25.80;57.50;;;;;;5133915;27;20029;-48
2021/08/13 10:05:39;;;;;;;23.75;17.40;;;24.90;59.30;;;;;;5133972;27;20019;-49
2021/08/13 10:08:06;;;;;;;20.60;16.20;;;25.50;58.00;;;;;;5114972;27;20027;-48
2021/08/13 10:10:36;;;;;;;20.58;14.63;;;26.10;56.00;;;;;;5133762;27;20027;-50
2021/08/13 10:13:04;;;;;;;20.75;13.98;;;26.10;55.70;;;;;;5134382;27;20422;-47
2021/08/13 10:15:32;;;;;;;17.95;13.10;;;26.60;54.40;;;;;;5133752;27;20420;-48
2021/08/13 10:18:00;;;;;;;19.45;13.93;;;26.00;55.00;;;;;;5134128;27;20451;-48
2021/08/13 10:20:28;;;;;;;19.73;12.18;;;25.70;55.60;;;;;;5133681;27;20023;-48
2021/08/13 10:22:54;;;;;;;17.38;12.65;;;25.60;55.90;;;;;;5133350;27;20023;-48
2021/08/13 10:25:20;;;;;;;18.65;12.15;;;26.10;54.60;;;;;;5133808;27;20027;-50
2021/08/13 10:27:47;;;;;;;21.95;13.25;;;26.60;53.90;;;;;;5133578;27;20432;-48
2021/08/13 10:30:17;;;;;;;14.90;10.70;;;26.40;54.40;;;;;;5132955;27;20027;-50
2021/08/13 10:32:45;;;;;;;11.02;7.93;;;26.20;53.00;;;;;;5132901;27;20424;-50
2021/08/13 10:35:11;;;;;;;10.45;8.35;;;26.30;52.30;;;;;;5133066;27;20084;-51
2021/08/13 10:37:37;;;;;;;12.13;8.38;;;26.60;50.90;;;;;;5132955;27;20047;-48
2021/08/13 10:40:04;;;;;;;10.27;8.05;;;26.70;50.20;;;;;;5132693;27;20030;-47
2021/08/13 10:42:30;;;;;;;11.15;7.78;;;26.30;50.50;;;;;;5114524;27;20115;-50
2021/08/13 10:45:04;;;;;;;11.40;6.03;;;27.20;48.90;;;;;;5133275;27;20038;-51
2021/08/13 10:47:35;;;;;;;12.57;6.88;;;26.70;49.80;;;;;;5132804;27;20023;-48
2021/08/13 10:50:03;;;;;;;12.85;7.65;;;27.30;49.30;;;;;;5132955;27;20378;-52
2021/08/13 10:52:39;;;;;;;12.13;7.65;;;27.40;48.90;;;;;;5132887;27;20099;-48
2021/08/13 10:55:06;;;;;;;11.00;7.60;;;27.30;49.20;;;;;;5133431;27;20051;-49
2021/08/13 10:57:50;;;;;;;18.92;9.02;;;27.70;48.30;;;;;;5132956;27;20098;-48
2021/08/13 11:00:17;;;;;;;10.88;5.82;;;29.10;45.60;;;;;;5133155;28;20041;-48
2021/08/13 11:03:19;;;;;;;7.72;5.88;;;28.90;44.60;;;;;;5133288;28;20540;-47
2021/08/13 11:05:49;;;;;;;12.80;6.00;;;26.90;48.70;;;;;;5114282;28;20147;-47
2021/08/13 11:08:15;;;;;;;8.93;5.77;;;26.50;50.00;;;;;;5133198;28;20015;-48
2021/08/13 11:10:40;;;;;;;8.93;5.00;;;27.10;48.60;;;;;;5135140;27;20030;-48
2021/08/13 11:13:37;;;;;;;11.35;5.10;;;27.20;49.00;;;;;;5137264;27;20459;-50
2021/08/13 11:16:22;;;;;;;6.90;4.07;;;28.40;46.70;;;;;;5135754;27;20092;-48
2021/08/13 11:19:19;;;;;;;6.13;4.50;;;28.40;45.90;;;;;;5136523;27;20035;-47
2021/08/13 11:21:51;;;;;;;7.03;4.70;;;28.50;44.20;;;;;;5120097;27;20031;-49
2021/08/13 11:24:23;;;;;;;15.65;10.18;;;27.50;45.90;;;;;;5136968;27;20027;-47
2021/08/13 11:26:52;;;;;;;8.15;3.90;;;28.20;45.90;;;;;;5137737;27;20015;-46
2021/08/13 11:29:27;;;;;;;5.47;3.30;;;27.80;47.20;;;;;;5137519;27;20422;-49
2021/08/13 11:31:54;;;;;;;5.45;4.00;;;27.40;48.50;;;;;;5137211;27;20450;-50
2021/08/13 11:34:45;;;;;;;9.05;4.47;;;27.10;49.40;;;;;;5136888;27;20027;-48
2021/08/13 11:37:42;;;;;;;8.23;4.20;;;27.30;48.90;;;;;;5137477;27;20098;-51
2021/08/13 11:40:14;;;;;;;6.68;4.45;;;27.00;49.40;;;;;;5136536;27;20023;-49
2021/08/13 11:42:47;;;;;;;5.18;3.25;;;26.80;49.90;;;;;;5118879;27;20019;-49
2021/08/13 11:45:14;;;;;;;5.35;3.13;;;26.50;50.30;;;;;;5136605;27;20031;-47
2021/08/13 11:47:52;;;;;;;4.10;3.20;;;26.20;51.50;;;;;;5136690;27;20057;-47
2021/08/13 11:50:19;;;;;;;8.32;3.55;;;26.30;51.90;;;;;;5137045;27;20030;-46
2021/08/13 11:52:50;;;;;;;7.18;3.42;;;26.50;51.80;;;;;;5101093;27;20115;-47
2021/08/13 11:55:27;;;;;;;3.80;2.92;;;26.80;51.10;;;;;;5136743;27;20502;-50
2021/08/13 11:57:54;;;;;;;4.65;3.05;;;27.70;48.00;;;;;;5136685;27;20102;-46
2021/08/13 12:00:29;;;;;;;3.70;2.78;;;27.90;47.50;;;;;;5118231;27;20379;-52
2021/08/13 12:03:03;;;;;;;9.65;2.90;;;28.20;47.00;;;;;;5136280;27;20015;-48
2021/08/13 12:05:34;;;;;;;5.47;2.67;;;27.30;47.90;;;;;;5136657;27;20031;-48
2021/08/13 12:08:02;;;;;;;3.42;2.90;;;26.80;48.50;;;;;;5118592;27;20355;-47
2021/08/13 12:10:28;;;;;;;3.83;3.08;;;27.40;48.70;;;;;;5136711;27;20016;-46
2021/08/13 12:12:54;;;;;;;3.83;2.78;;;27.90;47.60;;;;;;5136630;27;20580;-49
2021/08/13 12:15:31;;;;;;;3.25;2.95;;;27.00;48.60;;;;;;5136547;27;20023;-50
2021/08/13 12:17:58;;;;;;;3.42;2.67;;;27.00;48.60;;;;;;5117596;27;20023;-48
2021/08/13 12:20:24;;;;;;;6.40;2.63;;;26.50;50.00;;;;;;5136237;27;20447;-52
2021/08/13 12:23:01;;;;;;;7.32;2.47;;;26.50;50.70;;;;;;5135586;27;20098;-52
2021/08/13 12:25:41;;;;;;;4.15;2.42;;;26.30;51.10;;;;;;5118431;27;20440;-49
2021/08/13 12:28:08;;;;;;;4.30;3.00;;;26.70;50.70;;;;;;5136391;27;20493;-49
2021/08/13 12:30:35;;;;;;;3.38;2.53;;;27.70;48.00;;;;;;5136376;27;20538;-48
2021/08/13 12:33:03;;;;;;;5.93;2.65;;;27.40;47.30;;;;;;5117866;27;20049;-50
2021/08/13 12:35:39;;;;;;;4.53;2.42;;;27.80;46.70;;;;;;5135836;27;20137;-48